createdAt,value
2018-12-10T00:03:52.172Z,1.75
2018-12-10T00:13:52.229Z,2.09
2018-12-10T00:23:52.193Z,2.59
2018-12-10T00:33:52.182Z,2.33
2018-12-10T00:43:52.242Z,1.93
2018-12-10T00:53:52.229Z,2.12
2018-12-10T01:03:52.256Z,1.93
2018-12-10T01:13:52.242Z,1.87
2018-12-10T01:23:52.274Z,2.31
2018-12-10T01:33:52.190Z,2.40
2018-12-10T01:43:52.238Z,1.75
2018-12-10T01:53:52.265Z,2.05
2018-12-10T02:03:52.189Z,1.44
2018-12-10T02:13:52.196Z,1.07
2018-12-10T02:23:52.169Z,1.56
2018-12-10T02:33:52.143Z,1.55
2018-12-10T02:43:52.261Z,1.85
2018-12-10T02:53:52.231Z,2.33
2018-12-10T03:03:52.145Z,2.83
2018-12-10T03:13:52.162Z,3.39
2018-12-10T03:23:52.244Z,3.51
2018-12-10T03:33:52.220Z,3.76
2018-12-10T03:43:52.195Z,3.43
2018-12-10T03:53:52.139Z,2.40
2018-12-10T04:03:52.164Z,2.62
2018-12-10T04:13:52.207Z,2.31
2018-12-10T04:23:52.216Z,1.84
2018-12-10T04:33:53.009Z,1.38
2018-12-10T04:43:52.155Z,0.98
2018-12-10T04:53:52.209Z,0.84
2018-12-10T05:03:52.165Z,0.67
2018-12-10T05:13:52.277Z,1.51
2018-12-10T05:23:52.435Z,2.03
2018-12-10T05:33:52.245Z,2.34
2018-12-10T05:43:53.303Z,2.46
2018-12-10T05:53:52.159Z,1.81
2018-12-10T06:03:52.136Z,1.96
2018-12-10T06:13:52.212Z,2.84
2018-12-10T06:23:52.134Z,3.45
2018-12-10T06:33:52.106Z,3.48
2018-12-10T06:43:52.042Z,3.16
2018-12-10T06:53:52.152Z,1.88
2018-12-10T07:03:52.068Z,0.14
2018-12-10T07:13:52.066Z,0.31
2018-12-10T07:23:52.064Z,1.72
2018-12-10T07:33:52.231Z,2.42
2018-12-10T07:43:52.123Z,3.23
2018-12-10T07:53:52.010Z,0.91
2018-12-10T08:03:52.165Z,0.65
2018-12-10T08:13:52.138Z,1.15
2018-12-10T08:23:52.414Z,1.27
2018-12-10T08:33:52.280Z,1.96
2018-12-10T08:43:53.065Z,2.53
2018-12-10T08:53:52.163Z,1.95
2018-12-10T09:03:52.177Z,2.36
2018-12-10T09:13:52.113Z,3.13
2018-12-10T09:23:53.034Z,2.95
2018-12-10T09:33:52.244Z,3.66
2018-12-10T09:43:52.134Z,4.31
2018-12-10T09:53:52.060Z,3.21
2018-12-10T10:03:52.108Z,2.93
2018-12-10T10:13:52.261Z,3.06
2018-12-10T10:23:52.151Z,2.15
2018-12-10T10:33:52.103Z,2.58
2018-12-10T10:43:52.110Z,2.61
2018-12-10T10:53:52.124Z,2.61
2018-12-10T11:03:52.131Z,2.95
2018-12-10T11:13:52.118Z,1.43
2018-12-10T11:23:52.233Z,2.50
2018-12-10T11:33:52.130Z,2.29
2018-12-10T11:43:52.118Z,2.53
2018-12-10T11:53:52.131Z,1.84
2018-12-10T12:03:52.138Z,2.66
2018-12-10T12:13:52.086Z,2.90
2018-12-10T12:23:52.214Z,2.57
2018-12-10T12:33:52.070Z,2.23
2018-12-10T12:43:52.105Z,2.26
2018-12-10T12:53:53.142Z,2.18
2018-12-10T13:03:54.604Z,2.49
2018-12-10T13:13:52.115Z,2.28
2018-12-10T13:23:52.107Z,1.90
2018-12-10T13:33:52.140Z,2.15
2018-12-10T13:43:53.081Z,1.88
2018-12-10T13:53:51.940Z,1.61
2018-12-10T14:03:52.963Z,0.89
2018-12-10T14:13:52.050Z,0.66
2018-12-10T14:23:52.204Z,0.30
2018-12-10T14:33:52.227Z,0.85
2018-12-10T14:43:52.114Z,0.61
2018-12-10T14:53:52.078Z,1.21
2018-12-10T15:03:52.077Z,1.49
2018-12-10T15:13:52.123Z,1.38
2018-12-10T15:23:52.105Z,1.20
2018-12-10T15:33:52.028Z,1.63
2018-12-10T15:43:52.187Z,1.88
2018-12-10T15:53:52.058Z,1.64
2018-12-10T16:03:52.205Z,1.76
2018-12-10T16:13:52.011Z,2.35
2018-12-10T16:23:52.060Z,1.47
2018-12-10T16:33:52.090Z,1.10
2018-12-10T16:43:52.069Z,1.09
2018-12-10T16:53:52.056Z,1.79
2018-12-10T17:03:52.091Z,1.84
2018-12-10T17:13:52.039Z,1.56
2018-12-10T17:23:52.150Z,1.46
2018-12-10T17:33:52.073Z,1.60
2018-12-10T17:43:51.996Z,1.15
2018-12-10T17:53:52.010Z,0.93
2018-12-10T18:03:52.038Z,0.74
2018-12-10T18:13:52.007Z,0.93
2018-12-10T18:23:52.075Z,0.72
2018-12-10T18:33:52.039Z,1.37
2018-12-10T18:43:52.053Z,1.77
2018-12-10T18:53:52.060Z,1.93
2018-12-10T19:03:52.112Z,2.36
2018-12-10T19:13:52.011Z,2.23
2018-12-10T19:23:51.989Z,1.65
2018-12-10T19:33:51.906Z,1.95
2018-12-10T19:43:52.008Z,2.48
2018-12-10T19:53:52.065Z,2.50
2018-12-10T20:03:52.072Z,2.39
2018-12-10T20:13:52.030Z,2.42
2018-12-10T20:23:52.020Z,2.49
2018-12-10T20:33:51.914Z,2.51
2018-12-10T20:43:51.978Z,2.39
2018-12-10T20:53:52.221Z,2.09
2018-12-10T21:03:52.077Z,3.19
2018-12-10T21:13:52.022Z,2.51
2018-12-10T21:23:51.907Z,2.58
2018-12-10T21:33:52.112Z,2.13
2018-12-10T21:43:51.926Z,2.17
2018-12-10T21:53:52.017Z,2.12
2018-12-10T22:03:52.101Z,1.70
2018-12-10T22:13:52.016Z,1.67
2018-12-10T22:23:52.008Z,2.90
2018-12-10T22:33:51.991Z,2.29
2018-12-10T22:43:52.039Z,2.58
2018-12-10T22:53:52.001Z,2.85
2018-12-10T23:03:51.925Z,2.64
2018-12-10T23:13:52.085Z,2.71
2018-12-10T23:23:52.055Z,3.13
2018-12-10T23:33:51.912Z,2.38
2018-12-10T23:43:51.958Z,1.85
2018-12-10T23:53:51.951Z,2.26
